sensor_id;sensor_type;location;lat;lon;timestamp;pressure;altitude;pressure_sealevel;temperature;humidity
46412;BME280;32113;42.012;24.870;2023-07-20T00:02:21;98534.66;;;29.18;34.78
46412;BME280;32113;42.012;24.870;2023-07-20T00:04:46;98551.59;;;29.25;35.02
46412;BME280;32113;42.012;24.870;2023-07-20T00:07:11;98518.31;;;29.32;35.11
46412;BME280;32113;42.012;24.870;2023-07-20T00:09:36;98504.28;;;29.32;34.99
46412;BME280;32113;42.012;24.870;2023-07-20T00:12:02;98499.59;;;29.44;35.08
46412;BME280;32113;42.012;24.870;2023-07-20T00:14:27;98498.91;;;29.42;35.09
46412;BME280;32113;42.012;24.870;2023-07-20T00:16:54;98510.47;;;29.41;35.19
46412;BME280;32113;42.012;24.870;2023-07-20T00:19:26;98507.31;;;29.37;35.41
46412;BME280;32113;42.012;24.870;2023-07-20T00:21:52;98508.19;;;29.46;35.59
46412;BME280;32113;42.012;24.870;2023-07-20T00:24:18;98505.66;;;29.54;35.57
46412;BME280;32113;42.012;24.870;2023-07-20T00:26:43;98521.22;;;29.57;35.71
46412;BME280;32113;42.012;24.870;2023-07-20T00:29:08;98516.38;;;29.71;35.69
46412;BME280;32113;42.012;24.870;2023-07-20T00:31:34;98509.63;;;29.76;35.96
46412;BME280;32113;42.012;24.870;2023-07-20T00:34:02;98509.72;;;29.85;35.69
46412;BME280;32113;42.012;24.870;2023-07-20T00:36:27;98516.28;;;29.81;36.21
46412;BME280;32113;42.012;24.870;2023-07-20T00:38:52;98509.63;;;29.76;36.35
46412;BME280;32113;42.012;24.870;2023-07-20T00:41:17;98505.25;;;29.85;36.54
46412;BME280;32113;42.012;24.870;2023-07-20T00:43:43;98503.44;;;29.86;36.52
46412;BME280;32113;42.012;24.870;2023-07-20T00:46:08;98491.03;;;29.60;36.75
46412;BME280;32113;42.012;24.870;2023-07-20T00:48:34;98487.06;;;29.46;36.97
46412;BME280;32113;42.012;24.870;2023-07-20T00:50:59;98482.25;;;29.41;37.20
46412;BME280;32113;42.012;24.870;2023-07-20T00:53:25;98465.78;;;29.29;37.34
46412;BME280;32113;42.012;24.870;2023-07-20T00:55:51;98464.50;;;29.33;37.22
46412;BME280;32113;42.012;24.870;2023-07-20T00:58:16;98448.41;;;29.45;36.80
46412;BME280;32113;42.012;24.870;2023-07-20T01:00:41;98445.78;;;29.45;36.02
46412;BME280;32113;42.012;24.870;2023-07-20T01:03:07;98450.03;;;29.37;35.67
46412;BME280;32113;42.012;24.870;2023-07-20T01:05:38;98460.28;;;29.22;35.97
46412;BME280;32113;42.012;24.870;2023-07-20T01:08:07;98472.50;;;28.77;36.56
46412;BME280;32113;42.012;24.870;2023-07-20T01:10:39;98470.34;;;28.63;36.90
46412;BME280;32113;42.012;24.870;2023-07-20T01:13:06;98472.28;;;28.32;37.49
46412;BME280;32113;42.012;24.870;2023-07-20T01:15:33;98472.28;;;28.32;37.37
46412;BME280;32113;42.012;24.870;2023-07-20T01:17:58;98476.66;;;27.94;38.19
46412;BME280;32113;42.012;24.870;2023-07-20T01:20:26;98468.72;;;28.04;38.07
46412;BME280;32113;42.012;24.870;2023-07-20T01:33:16;98457.94;;;27.18;39.91
46412;BME280;32113;42.012;24.870;2023-07-20T01:35:43;98447.47;;;26.87;40.75
46412;BME280;32113;42.012;24.870;2023-07-20T01:38:09;98445.78;;;26.66;41.38
46412;BME280;32113;42.012;24.870;2023-07-20T01:40:34;98451.97;;;26.55;41.50
46412;BME280;32113;42.012;24.870;2023-07-20T01:43:00;98435.38;;;26.55;41.88
46412;BME280;32113;42.012;24.870;2023-07-20T01:45:26;98444.44;;;26.41;42.19
46412;BME280;32113;42.012;24.870;2023-07-20T01:47:52;98449.09;;;26.27;42.44
46412;BME280;32113;42.012;24.870;2023-07-20T01:50:17;98440.84;;;26.20;42.83
46412;BME280;32113;42.012;24.870;2023-07-20T01:52:42;98443.13;;;26.25;42.92
46412;BME280;32113;42.012;24.870;2023-07-20T01:55:07;98447.53;;;26.24;42.68
46412;BME280;32113;42.012;24.870;2023-07-20T01:57:33;98438.31;;;26.30;42.71
46412;BME280;32113;42.012;24.870;2023-07-20T01:59:58;98437.53;;;26.40;42.40
46412;BME280;32113;42.012;24.870;2023-07-20T02:02:26;98441.91;;;26.29;42.65
46412;BME280;32113;42.012;24.870;2023-07-20T02:04:51;98454.22;;;26.29;42.79
46412;BME280;32113;42.012;24.870;2023-07-20T02:07:16;98444.91;;;26.24;42.84
46412;BME280;32113;42.012;24.870;2023-07-20T02:09:41;98439.31;;;25.87;43.82
46412;BME280;32113;42.012;24.870;2023-07-20T02:12:07;98438.47;;;25.65;44.59
46412;BME280;32113;42.012;24.870;2023-07-20T02:14:32;98450.34;;;25.48;45.14
46412;BME280;32113;42.012;24.870;2023-07-20T02:16:58;98452.47;;;25.54;45.12
46412;BME280;32113;42.012;24.870;2023-07-20T02:19:25;98447.53;;;25.72;44.43
46412;BME280;32113;42.012;24.870;2023-07-20T02:21:50;98450.69;;;25.54;44.97
46412;BME280;32113;42.012;24.870;2023-07-20T02:24:15;98455.03;;;25.44;45.17
46412;BME280;32113;42.012;24.870;2023-07-20T02:26:40;98458.06;;;25.28;45.63
46412;BME280;32113;42.012;24.870;2023-07-20T02:29:06;98461.50;;;25.40;45.43
46412;BME280;32113;42.012;24.870;2023-07-20T02:31:32;98457.69;;;25.32;45.34
46412;BME280;32113;42.012;24.870;2023-07-20T02:33:58;98457.97;;;25.51;44.96
46412;BME280;32113;42.012;24.870;2023-07-20T02:36:23;98452.25;;;25.45;45.33
46412;BME280;32113;42.012;24.870;2023-07-20T02:38:48;98450.53;;;25.35;45.53
46412;BME280;32113;42.012;24.870;2023-07-20T02:41:14;98456.72;;;25.33;45.65
46412;BME280;32113;42.012;24.870;2023-07-20T02:43:39;98447.50;;;25.39;45.64
46412;BME280;32113;42.012;24.870;2023-07-20T02:46:04;98457.56;;;25.34;45.52
46412;BME280;32113;42.012;24.870;2023-07-20T02:48:29;98459.09;;;25.37;45.63
46412;BME280;32113;42.012;24.870;2023-07-20T02:50:55;98443.88;;;25.19;46.03
46412;BME280;32113;42.012;24.870;2023-07-20T02:53:20;98449.13;;;25.30;45.52
46412;BME280;32113;42.012;24.870;2023-07-20T02:55:45;98436.44;;;25.36;45.68
46412;BME280;32113;42.012;24.870;2023-07-20T02:58:11;98438.28;;;25.24;45.83
46412;BME280;32113;42.012;24.870;2023-07-20T03:00:36;98438.72;;;25.29;45.93
46412;BME280;32113;42.012;24.870;2023-07-20T03:03:01;98430.28;;;25.25;45.73
46412;BME280;32113;42.012;24.870;2023-07-20T03:05:27;98437.00;;;25.39;45.70
46412;BME280;32113;42.012;24.870;2023-07-20T03:07:53;98434.91;;;25.33;45.70
46412;BME280;32113;42.012;24.870;2023-07-20T03:10:18;98437.06;;;25.28;45.86
46412;BME280;32113;42.012;24.870;2023-07-20T03:12:43;98432.91;;;25.25;45.83
46412;BME280;32113;42.012;24.870;2023-07-20T03:15:09;98434.91;;;25.33;45.78
46412;BME280;32113;42.012;24.870;2023-07-20T03:17:34;98424.53;;;25.31;46.22
46412;BME280;32113;42.012;24.870;2023-07-20T03:19:59;98427.38;;;25.28;45.66
46412;BME280;32113;42.012;24.870;2023-07-20T03:22:25;98429.88;;;25.30;45.60
46412;BME280;32113;42.012;24.870;2023-07-20T03:24:51;98421.16;;;25.29;45.88
46412;BME280;32113;42.012;24.870;2023-07-20T03:27:17;98426.63;;;25.38;45.87
46412;BME280;32113;42.012;24.870;2023-07-20T03:29:42;98422.75;;;25.32;46.03
46412;BME280;32113;42.012;24.870;2023-07-20T03:32:09;98426.63;;;25.38;45.81
46412;BME280;32113;42.012;24.870;2023-07-20T03:34:34;98435.66;;;25.24;45.82
46412;BME280;32113;42.012;24.870;2023-07-20T03:36:59;98429.44;;;25.25;46.33
46412;BME280;32113;42.012;24.870;2023-07-20T03:39:25;98427.69;;;25.47;46.08
46412;BME280;32113;42.012;24.870;2023-07-20T03:41:50;98428.22;;;25.62;45.81
46412;BME280;32113;42.012;24.870;2023-07-20T03:44:16;98423.69;;;25.85;45.07
46412;BME280;32113;42.012;24.870;2023-07-20T03:46:41;98420.97;;;25.96;44.75
46412;BME280;32113;42.012;24.870;2023-07-20T03:49:07;98423.53;;;26.08;44.49
46412;BME280;32113;42.012;24.870;2023-07-20T03:51:33;98417.38;;;25.97;44.65
46412;BME280;32113;42.012;24.870;2023-07-20T03:53:59;98417.00;;;25.81;44.90
46412;BME280;32113;42.012;24.870;2023-07-20T03:56:24;98421.06;;;25.85;44.53
46412;BME280;32113;42.012;24.870;2023-07-20T03:58:50;98417.97;;;25.80;44.56
46412;BME280;32113;42.012;24.870;2023-07-20T04:01:15;98419.88;;;25.78;44.77
46412;BME280;32113;42.012;24.870;2023-07-20T04:03:42;98409.97;;;25.81;45.13
46412;BME280;32113;42.012;24.870;2023-07-20T04:06:07;98418.88;;;25.69;45.27
46412;BME280;32113;42.012;24.870;2023-07-20T04:08:33;98410.56;;;25.52;45.74
46412;BME280;32113;42.012;24.870;2023-07-20T04:11:00;98416.44;;;25.56;45.83
46412;BME280;32113;42.012;24.870;2023-07-20T04:13:25;98425.22;;;25.55;45.93
46412;BME280;32113;42.012;24.870;2023-07-20T04:15:51;98416.19;;;25.59;45.71
46412;BME280;32113;42.012;24.870;2023-07-20T04:18:16;98419.97;;;25.66;45.85
46412;BME280;32113;42.012;24.870;2023-07-20T04:20:41;98423.25;;;25.80;45.27
46412;BME280;32113;42.012;24.870;2023-07-20T04:23:07;98425.66;;;25.71;45.26
46412;BME280;32113;42.012;24.870;2023-07-20T04:25:32;98424.81;;;25.71;45.66
46412;BME280;32113;42.012;24.870;2023-07-20T04:28:04;98420.50;;;25.81;45.23
46412;BME280;32113;42.012;24.870;2023-07-20T04:30:29;98417.69;;;25.83;45.22
46412;BME280;32113;42.012;24.870;2023-07-20T04:32:54;98412.44;;;25.83;45.61
46412;BME280;32113;42.012;24.870;2023-07-20T04:38:04;98407.84;;;25.75;45.98
46412;BME280;32113;42.012;24.870;2023-07-20T04:40:29;98419.19;;;25.76;45.90
46412;BME280;32113;42.012;24.870;2023-07-20T04:42:54;98421.31;;;25.82;45.89
46412;BME280;32113;42.012;24.870;2023-07-20T04:45:19;98413.59;;;25.90;45.58
46412;BME280;32113;42.012;24.870;2023-07-20T04:47:45;98407.81;;;25.96;45.31
46412;BME280;32113;42.012;24.870;2023-07-20T04:50:10;98422.31;;;26.12;45.24
46412;BME280;32113;42.012;24.870;2023-07-20T04:52:35;98423.84;;;26.15;45.28
46412;BME280;32113;42.012;24.870;2023-07-20T04:55:00;98426.47;;;26.15;45.23
46412;BME280;32113;42.012;24.870;2023-07-20T04:57:26;98421.91;;;26.17;45.39
46412;BME280;32113;42.012;24.870;2023-07-20T04:59:51;98427.47;;;26.23;45.42
46412;BME280;32113;42.012;24.870;2023-07-20T05:02:16;98419.34;;;26.27;45.37
46412;BME280;32113;42.012;24.870;2023-07-20T05:04:42;98416.91;;;26.45;44.81
46412;BME280;32113;42.012;24.870;2023-07-20T05:07:07;98419.44;;;26.56;44.35
46412;BME280;32113;42.012;24.870;2023-07-20T05:09:32;98418.09;;;26.82;44.10
46412;BME280;32113;42.012;24.870;2023-07-20T05:11:58;98417.91;;;26.95;43.77
46412;BME280;32113;42.012;24.870;2023-07-20T05:14:23;98422.34;;;27.24;43.30
46412;BME280;32113;42.012;24.870;2023-07-20T05:16:48;98426.75;;;27.53;42.75
46412;BME280;32113;42.012;24.870;2023-07-20T05:19:13;98426.91;;;27.71;41.88
46412;BME280;32113;42.012;24.870;2023-07-20T05:21:39;98421.34;;;27.84;41.85
46412;BME280;32113;42.012;24.870;2023-07-20T05:24:04;98424.19;;;28.11;41.46
46412;BME280;32113;42.012;24.870;2023-07-20T05:26:30;98414.69;;;28.28;40.85
46412;BME280;32113;42.012;24.870;2023-07-20T05:28:55;98420.63;;;28.40;40.86
46412;BME280;32113;42.012;24.870;2023-07-20T05:31:20;98420.13;;;28.54;40.61
46412;BME280;32113;42.012;24.870;2023-07-20T05:33:46;98414.25;;;28.61;40.70
46412;BME280;32113;42.012;24.870;2023-07-20T05:36:11;98414.44;;;28.77;40.46
46412;BME280;32113;42.012;24.870;2023-07-20T05:38:36;98427.28;;;28.90;40.38
46412;BME280;32113;42.012;24.870;2023-07-20T05:41:01;98420.34;;;29.07;39.95
46412;BME280;32113;42.012;24.870;2023-07-20T05:43:27;98421.25;;;28.98;39.69
46412;BME280;32113;42.012;24.870;2023-07-20T05:45:52;98417.56;;;28.91;39.73
46412;BME280;32113;42.012;24.870;2023-07-20T05:48:17;98422.09;;;28.98;40.21
46412;BME280;32113;42.012;24.870;2023-07-20T05:50:43;98410.19;;;28.84;40.11
46412;BME280;32113;42.012;24.870;2023-07-20T05:53:11;98420.84;;;28.75;40.28
46412;BME280;32113;42.012;24.870;2023-07-20T05:55:36;98415.56;;;28.75;40.58
46412;BME280;32113;42.012;24.870;2023-07-20T05:58:01;98420.59;;;28.96;40.77
46412;BME280;32113;42.012;24.870;2023-07-20T06:00:27;98407.41;;;28.86;40.22
46412;BME280;32113;42.012;24.870;2023-07-20T06:02:52;98407.28;;;28.88;40.68
46412;BME280;32113;42.012;24.870;2023-07-20T06:05:18;98403.78;;;28.87;40.32
46412;BME280;32113;42.012;24.870;2023-07-20T06:07:44;98406.69;;;28.94;40.36
46412;BME280;32113;42.012;24.870;2023-07-20T06:10:09;98404.22;;;29.10;40.30
46412;BME280;32113;42.012;24.870;2023-07-20T06:12:34;98398.69;;;29.22;40.12
46412;BME280;32113;42.012;24.870;2023-07-20T06:15:03;98395.03;;;29.15;39.82
46412;BME280;32113;42.012;24.870;2023-07-20T06:17:29;98390.31;;;29.08;39.90
46412;BME280;32113;42.012;24.870;2023-07-20T06:19:54;98391.22;;;28.99;40.41
46412;BME280;32113;42.012;24.870;2023-07-20T06:22:19;98387.53;;;29.10;40.48
46412;BME280;32113;42.012;24.870;2023-07-20T06:24:44;98371.91;;;29.35;40.17
46412;BME280;32113;42.012;24.870;2023-07-20T06:27:10;98381.72;;;29.43;39.98
46412;BME280;32113;42.012;24.870;2023-07-20T06:29:35;98378.31;;;29.50;40.22
46412;BME280;32113;42.012;24.870;2023-07-20T06:32:00;98383.53;;;29.69;39.44
46412;BME280;32113;42.012;24.870;2023-07-20T06:34:25;98382.16;;;29.83;39.36
46412;BME280;32113;42.012;24.870;2023-07-20T06:36:51;98372.13;;;29.95;38.60
46412;BME280;32113;42.012;24.870;2023-07-20T06:39:16;98366.50;;;29.89;38.88
46412;BME280;32113;42.012;24.870;2023-07-20T06:41:41;98358.97;;;30.03;38.46
46412;BME280;32113;42.012;24.870;2023-07-20T06:44:06;98368.97;;;30.18;38.04
46412;BME280;32113;42.012;24.870;2023-07-20T06:46:33;98360.88;;;30.27;38.56
46412;BME280;32113;42.012;24.870;2023-07-20T06:48:58;98362.75;;;30.44;38.21
46412;BME280;32113;42.012;24.870;2023-07-20T06:51:23;98365.94;;;30.55;37.93
46412;BME280;32113;42.012;24.870;2023-07-20T06:53:48;98371.09;;;30.65;37.54
46412;BME280;32113;42.012;24.870;2023-07-20T06:56:14;98372.28;;;30.71;36.71
46412;BME280;32113;42.012;24.870;2023-07-20T06:58:39;98371.44;;;30.71;37.21
46412;BME280;32113;42.012;24.870;2023-07-20T07:04:07;98360.41;;;31.00;36.81
46412;BME280;32113;42.012;24.870;2023-07-20T07:06:35;98365.22;;;31.22;36.75
46412;BME280;32113;42.012;24.870;2023-07-20T07:09:02;98375.50;;;31.41;37.10
46412;BME280;32113;42.012;24.870;2023-07-20T07:11:27;98359.69;;;31.65;36.76
46412;BME280;32113;42.012;24.870;2023-07-20T07:13:52;98367.47;;;31.83;37.05
46412;BME280;32113;42.012;24.870;2023-07-20T07:16:18;98368.72;;;32.04;36.52
46412;BME280;32113;42.012;24.870;2023-07-20T07:18:47;98371.81;;;32.24;35.97
46412;BME280;32113;42.012;24.870;2023-07-20T07:21:12;98372.25;;;32.44;34.40
46412;BME280;32113;42.012;24.870;2023-07-20T07:23:38;98365.34;;;32.58;34.50
46412;BME280;32113;42.012;24.870;2023-07-20T07:26:04;98364.41;;;32.74;34.75
46412;BME280;32113;42.012;24.870;2023-07-20T07:28:29;98346.69;;;32.90;34.45
46412;BME280;32113;42.012;24.870;2023-07-20T07:30:55;98358.53;;;33.11;33.73
46412;BME280;32113;42.012;24.870;2023-07-20T07:33:22;98353.25;;;33.26;33.27
46412;BME280;32113;42.012;24.870;2023-07-20T07:35:47;98355.94;;;33.41;33.07
46412;BME280;32113;42.012;24.870;2023-07-20T07:38:12;98356.81;;;33.57;33.36
46412;BME280;32113;42.012;24.870;2023-07-20T07:40:37;98361.94;;;33.73;32.68
46412;BME280;32113;42.012;24.870;2023-07-20T07:43:03;98363.50;;;33.83;32.29
46412;BME280;32113;42.012;24.870;2023-07-20T07:45:28;98357.91;;;33.92;32.27
46412;BME280;32113;42.012;24.870;2023-07-20T07:47:53;98360.41;;;34.09;32.52
46412;BME280;32113;42.012;24.870;2023-07-20T07:50:19;98350.53;;;34.25;32.23
46412;BME280;32113;42.012;24.870;2023-07-20T07:52:44;98356.41;;;34.35;31.85
46412;BME280;32113;42.012;24.870;2023-07-20T07:55:09;98347.81;;;34.55;31.98
46412;BME280;32113;42.012;24.870;2023-07-20T07:57:35;98349.00;;;34.67;31.84
46412;BME280;32113;42.012;24.870;2023-07-20T08:00:00;98353.63;;;34.80;30.80
46412;BME280;32113;42.012;24.870;2023-07-20T08:02:25;98356.78;;;34.91;31.27
46412;BME280;32113;42.012;24.870;2023-07-20T08:04:51;98361.59;;;35.02;31.16
46412;BME280;32113;42.012;24.870;2023-07-20T08:07:17;98350.69;;;35.19;30.24
46412;BME280;32113;42.012;24.870;2023-07-20T08:09:42;98345.66;;;35.31;30.74
46412;BME280;32113;42.012;24.870;2023-07-20T08:12:08;98350.41;;;35.35;29.80
46412;BME280;32113;42.012;24.870;2023-07-20T08:14:33;98350.25;;;35.44;30.01
46412;BME280;32113;42.012;24.870;2023-07-20T08:16:58;98356.09;;;35.61;30.25
46412;BME280;32113;42.012;24.870;2023-07-20T08:19:24;98365.63;;;35.70;29.78
46412;BME280;32113;42.012;24.870;2023-07-20T08:21:49;98355.22;;;35.82;29.56
46412;BME280;32113;42.012;24.870;2023-07-20T08:24:14;98353.41;;;35.89;30.00
46412;BME280;32113;42.012;24.870;2023-07-20T08:26:40;98363.72;;;35.99;29.87
46412;BME280;32113;42.012;24.870;2023-07-20T08:29:09;98369.53;;;36.10;29.05
46412;BME280;32113;42.012;24.870;2023-07-20T08:31:34;98360.94;;;36.14;29.25
46412;BME280;32113;42.012;24.870;2023-07-20T08:33:59;98362.41;;;36.24;29.25
46412;BME280;32113;42.012;24.870;2023-07-20T08:36:27;98362.84;;;36.34;29.62
46412;BME280;32113;42.012;24.870;2023-07-20T08:38:52;98372.53;;;36.42;29.89
46412;BME280;32113;42.012;24.870;2023-07-20T08:41:17;98369.44;;;36.45;28.93
46412;BME280;32113;42.012;24.870;2023-07-20T08:43:52;98368.44;;;36.53;28.72
46412;BME280;32113;42.012;24.870;2023-07-20T08:46:19;98360.66;;;36.58;27.97
46412;BME280;32113;42.012;24.870;2023-07-20T08:48:45;98365.03;;;36.66;28.86
46412;BME280;32113;42.012;24.870;2023-07-20T08:51:11;98371.84;;;36.82;28.69
46412;BME280;32113;42.012;24.870;2023-07-20T08:53:37;98368.13;;;36.90;28.63
46412;BME280;32113;42.012;24.870;2023-07-20T08:56:03;98365.66;;;36.88;28.15
46412;BME280;32113;42.012;24.870;2023-07-20T08:58:29;98368.13;;;36.90;27.46
46412;BME280;32113;42.012;24.870;2023-07-20T09:00:54;98362.78;;;36.97;27.66
46412;BME280;32113;42.012;24.870;2023-07-20T09:03:20;98366.47;;;36.95;27.98
46412;BME280;32113;42.012;24.870;2023-07-20T09:05:46;98354.78;;;36.97;27.86
46412;BME280;32113;42.012;24.870;2023-07-20T09:08:11;98347.16;;;37.07;27.52
46412;BME280;32113;42.012;24.870;2023-07-20T09:10:36;98357.47;;;37.17;28.22
46412;BME280;32113;42.012;24.870;2023-07-20T09:13:02;98340.81;;;37.28;27.68
46412;BME280;32113;42.012;24.870;2023-07-20T09:15:29;98341.19;;;37.39;27.24
46412;BME280;32113;42.012;24.870;2023-07-20T09:17:54;98336.88;;;37.44;26.82
46412;BME280;32113;42.012;24.870;2023-07-20T09:20:20;98332.75;;;37.49;26.81
46412;BME280;32113;42.012;24.870;2023-07-20T09:22:45;98317.97;;;37.19;26.53
46412;BME280;32113;42.012;24.870;2023-07-20T09:27:37;98313.41;;;36.59;27.85
46412;BME280;32113;42.012;24.870;2023-07-20T09:30:03;98307.50;;;36.70;27.66
46412;BME280;32113;42.012;24.870;2023-07-20T09:32:29;98318.38;;;36.82;27.94
46412;BME280;32113;42.012;24.870;2023-07-20T09:34:54;98322.72;;;36.97;27.55
46412;BME280;32113;42.012;24.870;2023-07-20T09:37:23;98319.63;;;37.13;26.19
46412;BME280;32113;42.012;24.870;2023-07-20T09:39:48;98321.47;;;37.26;26.47
46412;BME280;32113;42.012;24.870;2023-07-20T09:42:16;98303.38;;;37.28;26.84
46412;BME280;32113;42.012;24.870;2023-07-20T09:44:44;98302.50;;;37.41;26.92
46412;BME280;32113;42.012;24.870;2023-07-20T09:47:09;98298.66;;;37.10;26.75
46412;BME280;32113;42.012;24.870;2023-07-20T09:49:41;98292.47;;;37.23;26.89
46412;BME280;32113;42.012;24.870;2023-07-20T09:52:08;98282.19;;;37.00;26.69
46412;BME280;32113;42.012;24.870;2023-07-20T09:54:34;98282.81;;;37.02;26.83
46412;BME280;32113;42.012;24.870;2023-07-20T09:57:00;98278.91;;;37.18;26.68
46412;BME280;32113;42.012;24.870;2023-07-20T09:59:27;98284.88;;;37.13;27.54
46412;BME280;32113;42.012;24.870;2023-07-20T10:01:53;98279.50;;;37.06;26.62
46412;BME280;32113;42.012;24.870;2023-07-20T10:04:19;98275.19;;;36.99;26.89
46412;BME280;32113;42.012;24.870;2023-07-20T10:06:46;98268.22;;;36.98;27.37
46412;BME280;32113;42.012;24.870;2023-07-20T10:09:12;98265.34;;;37.19;27.82
46412;BME280;32113;42.012;24.870;2023-07-20T10:11:40;98251.50;;;37.43;27.58
46412;BME280;32113;42.012;24.870;2023-07-20T10:14:08;98250.41;;;37.64;27.85
46412;BME280;32113;42.012;24.870;2023-07-20T10:16:36;98252.78;;;37.86;28.05
46412;BME280;32113;42.012;24.870;2023-07-20T10:19:07;98235.38;;;38.09;26.64
46412;BME280;32113;42.012;24.870;2023-07-20T10:21:37;98244.41;;;38.15;26.02
46412;BME280;32113;42.012;24.870;2023-07-20T10:24:05;98242.47;;;38.29;26.67
46412;BME280;32113;42.012;24.870;2023-07-20T10:26:30;98227.28;;;38.48;26.33
46412;BME280;32113;42.012;24.870;2023-07-20T10:28:56;98230.25;;;38.65;25.56
46412;BME280;32113;42.012;24.870;2023-07-20T10:31:22;98218.41;;;38.80;25.34
46412;BME280;32113;42.012;24.870;2023-07-20T10:33:48;98217.34;;;38.81;24.77
46412;BME280;32113;42.012;24.870;2023-07-20T10:36:15;98205.38;;;38.83;24.77
46412;BME280;32113;42.012;24.870;2023-07-20T10:38:41;98205.59;;;38.82;24.55
46412;BME280;32113;42.012;24.870;2023-07-20T10:43:50;98204.25;;;38.91;24.16
46412;BME280;32113;42.012;24.870;2023-07-20T10:46:33;98208.78;;;38.90;23.75
46412;BME280;32113;42.012;24.870;2023-07-20T10:48:59;98207.78;;;38.92;24.22
46412;BME280;32113;42.012;24.870;2023-07-20T10:51:24;98203.69;;;38.89;24.66
46412;BME280;32113;42.012;24.870;2023-07-20T10:53:49;98205.03;;;38.98;23.70
46412;BME280;32113;42.012;24.870;2023-07-20T10:56:19;98203.34;;;38.97;24.20
46412;BME280;32113;42.012;24.870;2023-07-20T10:58:44;98199.19;;;39.01;23.30
46412;BME280;32113;42.012;24.870;2023-07-20T11:01:11;98203.31;;;39.04;23.10
46412;BME280;32113;42.012;24.870;2023-07-20T11:03:38;98204.78;;;39.00;23.83
46412;BME280;32113;42.012;24.870;2023-07-20T11:08:48;98196.84;;;39.12;24.25
46412;BME280;32113;42.012;24.870;2023-07-20T11:11:26;98186.81;;;39.07;23.93
46412;BME280;32113;42.012;24.870;2023-07-20T11:13:56;98182.78;;;39.16;24.24
46412;BME280;32113;42.012;24.870;2023-07-20T11:16:37;98176.06;;;39.26;23.75
46412;BME280;32113;42.012;24.870;2023-07-20T11:19:04;98172.69;;;39.31;23.20
46412;BME280;32113;42.012;24.870;2023-07-20T11:21:40;98185.09;;;39.32;23.46
46412;BME280;32113;42.012;24.870;2023-07-20T11:24:06;98176.97;;;39.20;22.60
46412;BME280;32113;42.012;24.870;2023-07-20T11:26:48;98177.19;;;39.18;23.01
46412;BME280;32113;42.012;24.870;2023-07-20T11:29:15;98173.47;;;39.19;24.80
46412;BME280;32113;42.012;24.870;2023-07-20T11:31:41;98166.59;;;39.23;24.32
46412;BME280;32113;42.012;24.870;2023-07-20T11:34:09;98168.47;;;39.23;24.11
46412;BME280;32113;42.012;24.870;2023-07-20T11:36:34;98154.81;;;39.24;24.42
46412;BME280;32113;42.012;24.870;2023-07-20T11:39:00;98150.03;;;39.26;24.43
46412;BME280;32113;42.012;24.870;2023-07-20T11:41:25;98144.47;;;39.28;24.19
46412;BME280;32113;42.012;24.870;2023-07-20T11:43:51;98149.75;;;39.35;23.71
46412;BME280;32113;42.012;24.870;2023-07-20T11:46:17;98146.63;;;39.38;22.93
46412;BME280;32113;42.012;24.870;2023-07-20T11:48:42;98153.47;;;39.34;23.50
46412;BME280;32113;42.012;24.870;2023-07-20T11:51:13;98147.88;;;39.35;24.66
46412;BME280;32113;42.012;24.870;2023-07-20T11:53:38;98148.03;;;39.40;23.76
46412;BME280;32113;42.012;24.870;2023-07-20T11:56:03;98149.44;;;39.43;23.54
46412;BME280;32113;42.012;24.870;2023-07-20T11:58:29;98142.78;;;39.46;23.24
46412;BME280;32113;42.012;24.870;2023-07-20T12:00:54;98135.09;;;39.49;24.05
46412;BME280;32113;42.012;24.870;2023-07-20T12:03:19;98138.09;;;39.60;24.34
46412;BME280;32113;42.012;24.870;2023-07-20T12:05:45;98130.72;;;39.55;23.02
46412;BME280;32113;42.012;24.870;2023-07-20T12:08:10;98134.22;;;39.25;23.29
46412;BME280;32113;42.012;24.870;2023-07-20T12:10:38;98121.97;;;39.29;23.26
46412;BME280;32113;42.012;24.870;2023-07-20T12:13:08;98119.09;;;39.12;22.82
46412;BME280;32113;42.012;24.870;2023-07-20T12:15:34;98114.09;;;39.15;23.82
46412;BME280;32113;42.012;24.870;2023-07-20T12:18:00;98117.63;;;39.28;24.00
46412;BME280;32113;42.012;24.870;2023-07-20T12:20:27;98114.03;;;39.22;23.45
46412;BME280;32113;42.012;24.870;2023-07-20T12:22:55;98108.66;;;39.22;24.21
46412;BME280;32113;42.012;24.870;2023-07-20T12:25:20;98100.41;;;39.36;22.66
46412;BME280;32113;42.012;24.870;2023-07-20T12:27:46;98101.94;;;39.32;23.58
46412;BME280;32113;42.012;24.870;2023-07-20T12:30:12;98091.69;;;39.40;23.07
46412;BME280;32113;42.012;24.870;2023-07-20T12:32:38;98079.03;;;39.48;22.70
46412;BME280;32113;42.012;24.870;2023-07-20T12:35:04;98065.75;;;39.53;23.35
46412;BME280;32113;42.012;24.870;2023-07-20T12:37:29;98053.75;;;39.55;23.04
46412;BME280;32113;42.012;24.870;2023-07-20T12:39:54;98057.75;;;39.65;23.22
46412;BME280;32113;42.012;24.870;2023-07-20T12:42:20;98048.31;;;39.74;22.67
46412;BME280;32113;42.012;24.870;2023-07-20T12:44:45;98049.22;;;39.80;22.22
46412;BME280;32113;42.012;24.870;2023-07-20T12:47:10;98054.03;;;39.78;22.47
46412;BME280;32113;42.012;24.870;2023-07-20T12:49:36;98058.22;;;39.86;22.22
46412;BME280;32113;42.012;24.870;2023-07-20T12:52:01;98064.19;;;39.88;22.23
46412;BME280;32113;42.012;24.870;2023-07-20T12:54:26;98070.06;;;39.97;22.81
46412;BME280;32113;42.012;24.870;2023-07-20T12:56:51;98065.63;;;40.02;22.48
46412;BME280;32113;42.012;24.870;2023-07-20T12:59:17;98071.91;;;39.96;22.40
46412;BME280;32113;42.012;24.870;2023-07-20T13:01:42;98066.19;;;40.04;22.43
46412;BME280;32113;42.012;24.870;2023-07-20T13:04:09;98063.41;;;40.11;22.11
46412;BME280;32113;42.012;24.870;2023-07-20T13:06:35;98056.19;;;40.12;22.15
46412;BME280;32113;42.012;24.870;2023-07-20T13:09:00;98058.16;;;40.16;22.48